createdAt,value
2023-01-11T00:00:04.771Z,574.22
2023-01-11T00:00:16.729Z,574.06
2023-01-11T00:00:28.743Z,574.28
2023-01-11T00:00:40.751Z,574.65
2023-01-11T00:00:51.745Z,574.49
2023-01-11T00:01:03.751Z,574.30
2023-01-11T00:01:14.707Z,574.42
2023-01-11T00:01:26.722Z,574.66
2023-01-11T00:01:38.749Z,574.98
2023-01-11T00:01:49.700Z,574.80
2023-01-11T00:02:01.841Z,574.50
2023-01-11T00:02:13.788Z,574.72
2023-01-11T00:02:25.768Z,574.63
2023-01-11T00:02:37.804Z,574.73
2023-01-11T00:02:48.679Z,575.19
2023-01-11T00:02:59.737Z,574.80
2023-01-11T00:03:10.699Z,574.97
2023-01-11T00:03:21.755Z,574.86
2023-01-11T00:03:32.751Z,574.95
2023-01-11T00:03:43.708Z,575.23
2023-01-11T00:03:54.777Z,575.05
2023-01-11T00:04:05.735Z,575.20
2023-01-11T00:04:17.786Z,575.59
2023-01-11T00:04:29.774Z,575.74
2023-01-11T00:04:40.801Z,575.76
2023-01-11T00:04:52.813Z,575.47
2023-01-11T00:05:04.757Z,575.53
2023-01-11T00:05:15.710Z,575.12
2023-01-11T00:05:26.703Z,575.55
2023-01-11T00:05:37.774Z,575.22
2023-01-11T00:05:48.750Z,575.48
2023-01-11T00:05:59.695Z,575.80
2023-01-11T00:06:10.754Z,575.70
2023-01-11T00:06:22.807Z,576.33
2023-01-11T00:06:34.786Z,576.16
2023-01-11T00:06:45.833Z,576.11
2023-01-11T00:06:56.756Z,576.23
2023-01-11T00:07:08.717Z,575.83
2023-01-11T00:07:20.733Z,576.24
2023-01-11T00:07:31.716Z,576.15
2023-01-11T00:07:42.775Z,576.36
2023-01-11T00:07:53.741Z,575.89
2023-01-11T00:08:04.694Z,575.93
2023-01-11T00:08:16.707Z,575.76
2023-01-11T00:08:27.794Z,576.20
2023-01-11T00:08:39.723Z,575.90
2023-01-11T00:08:50.784Z,576.09
2023-01-11T00:09:02.693Z,576.36
2023-01-11T00:09:13.743Z,575.99
2023-01-11T00:09:25.758Z,576.29
2023-01-11T00:09:36.711Z,576.44
2023-01-11T00:09:48.736Z,576.48
2023-01-11T00:09:59.728Z,576.52
2023-01-11T00:10:11.731Z,576.58
2023-01-11T00:10:22.691Z,576.22
2023-01-11T00:10:34.724Z,576.62
2023-01-11T00:10:46.729Z,576.67
2023-01-11T00:10:57.704Z,575.94
2023-01-11T00:11:09.715Z,576.11
2023-01-11T00:11:20.710Z,576.59
2023-01-11T00:11:31.771Z,576.20
2023-01-11T00:11:43.772Z,576.70
2023-01-11T00:11:54.736Z,576.86
2023-01-11T00:12:06.731Z,576.71
2023-01-11T00:12:18.742Z,576.58
2023-01-11T00:12:29.697Z,576.96
2023-01-11T00:12:40.759Z,576.76
2023-01-11T00:12:51.727Z,576.79
2023-01-11T00:13:03.736Z,576.91
2023-01-11T00:13:14.697Z,576.87
2023-01-11T00:13:25.759Z,577.13
2023-01-11T00:13:36.715Z,576.95
2023-01-11T00:13:48.733Z,576.38
2023-01-11T00:13:59.728Z,577.34
2023-01-11T00:14:10.693Z,577.30
2023-01-11T00:14:21.753Z,577.15
2023-01-11T00:14:32.717Z,577.21
2023-01-11T00:14:43.777Z,577.25
2023-01-11T00:14:55.786Z,577.14
2023-01-11T00:15:07.705Z,577.50
2023-01-11T00:15:18.757Z,577.43
2023-01-11T00:15:29.718Z,577.30
2023-01-11T00:15:41.773Z,577.20
2023-01-11T00:15:52.794Z,577.39
2023-01-11T00:16:04.768Z,577.50
2023-01-11T00:16:16.764Z,577.16
2023-01-11T00:16:28.759Z,576.91
2023-01-11T00:16:39.705Z,576.94
2023-01-11T00:16:51.712Z,577.04
2023-01-11T00:17:03.723Z,577.04
2023-01-11T00:17:14.783Z,576.99
2023-01-11T00:17:25.752Z,577.30
2023-01-11T00:17:36.707Z,577.28
2023-01-11T00:17:47.702Z,577.15
2023-01-11T00:17:58.779Z,576.87
2023-01-11T00:18:10.788Z,577.46
2023-01-11T00:18:22.717Z,577.57
2023-01-11T00:18:34.729Z,577.56
2023-01-11T00:18:46.732Z,577.63
2023-01-11T00:18:58.093Z,577.32
2023-01-11T00:19:10.040Z,577.13
2023-01-11T00:19:21.106Z,577.82
2023-01-11T00:19:33.046Z,577.21
2023-01-11T00:19:44.019Z,577.33
2023-01-11T00:19:55.121Z,577.35
2023-01-11T00:20:05.926Z,577.12
2023-01-11T00:20:17.744Z,577.49
2023-01-11T00:20:28.708Z,577.46
2023-01-11T00:20:39.798Z,577.35
2023-01-11T00:20:50.784Z,577.24
2023-01-11T00:21:01.786Z,577.50
2023-01-11T00:21:12.748Z,577.51
2023-01-11T00:21:24.765Z,577.06
2023-01-11T00:21:35.761Z,577.01
2023-01-11T00:21:46.735Z,577.25
2023-01-11T00:21:58.742Z,577.20
2023-01-11T00:22:09.805Z,576.96
2023-01-11T00:22:20.767Z,577.01
2023-01-11T00:22:31.740Z,576.95
2023-01-11T00:22:42.723Z,577.07
2023-01-11T00:22:53.804Z,577.19
2023-01-11T00:23:04.785Z,576.90
2023-01-11T00:23:15.756Z,576.58
2023-01-11T00:23:26.808Z,576.72
2023-01-11T00:23:38.781Z,576.60
2023-01-11T00:23:49.743Z,576.92
2023-01-11T00:24:00.811Z,576.85
2023-01-11T00:24:12.747Z,576.78
2023-01-11T00:24:24.773Z,576.52
2023-01-11T00:24:35.750Z,576.77
2023-01-11T00:24:46.820Z,576.96
2023-01-11T00:24:58.754Z,576.66
2023-01-11T00:25:09.722Z,576.74
2023-01-11T00:25:20.801Z,577.15
2023-01-11T00:25:32.735Z,577.18
2023-01-11T00:25:43.700Z,577.28
2023-01-11T00:25:54.768Z,577.31
2023-01-11T00:26:05.741Z,577.29
2023-01-11T00:26:16.801Z,577.37
2023-01-11T00:26:28.730Z,577.51
2023-01-11T00:26:39.797Z,577.09
2023-01-11T00:26:51.749Z,576.89
2023-01-11T00:27:02.723Z,576.81
2023-01-11T00:27:13.798Z,576.55
2023-01-11T00:27:25.737Z,576.24
2023-01-11T00:27:36.802Z,576.67
2023-01-11T00:27:48.737Z,576.59
2023-01-11T00:28:00.752Z,576.56
2023-01-11T00:28:11.729Z,576.58
2023-01-11T00:28:22.795Z,576.57
2023-01-11T00:28:34.734Z,576.98
2023-01-11T00:28:46.748Z,577.09
2023-01-11T00:28:57.740Z,576.90
2023-01-11T00:29:08.732Z,577.19
2023-01-11T00:29:19.713Z,577.06
2023-01-11T00:29:30.770Z,576.98
2023-01-11T00:29:41.745Z,576.87
2023-01-11T00:29:53.739Z,576.97
2023-01-11T00:30:04.728Z,576.98
2023-01-11T00:30:15.796Z,577.21
2023-01-11T00:30:27.772Z,577.35
2023-01-11T00:30:38.746Z,577.35
2023-01-11T00:30:49.739Z,577.19
2023-01-11T00:31:00.751Z,577.00
2023-01-11T00:31:11.759Z,577.10
2023-01-11T00:31:22.800Z,577.09
2023-01-11T00:31:34.770Z,577.08
2023-01-11T00:31:45.840Z,577.10
2023-01-11T00:31:57.767Z,577.41
2023-01-11T00:32:08.735Z,577.11
2023-01-11T00:32:19.732Z,577.14
2023-01-11T00:32:30.720Z,577.62
2023-01-11T00:32:41.711Z,577.48
2023-01-11T00:32:52.769Z,577.33
2023-01-11T00:33:03.741Z,577.40
2023-01-11T00:33:14.704Z,578.01
2023-01-11T00:33:25.775Z,577.67
2023-01-11T00:33:36.746Z,577.79
2023-01-11T00:33:47.745Z,577.62
2023-01-11T00:33:58.727Z,578.18
2023-01-11T00:34:09.795Z,577.87
2023-01-11T00:34:21.734Z,577.76
2023-01-11T00:34:32.811Z,578.18
2023-01-11T00:34:44.746Z,578.11
2023-01-11T00:34:55.719Z,578.55
2023-01-11T00:35:06.807Z,578.54
2023-01-11T00:35:18.722Z,578.35
2023-01-11T00:35:29.847Z,578.00
2023-01-11T00:35:41.773Z,578.18
2023-01-11T00:35:52.753Z,578.35
2023-01-11T00:36:03.725Z,578.68
2023-01-11T00:36:14.799Z,578.68
2023-01-11T00:36:25.755Z,578.36
2023-01-11T00:36:36.733Z,578.20
2023-01-11T00:36:47.795Z,578.41
2023-01-11T00:36:59.731Z,578.26
2023-01-11T00:37:10.812Z,578.17
2023-01-11T00:37:21.775Z,578.51
2023-01-11T00:37:32.762Z,578.60
2023-01-11T00:37:43.734Z,578.75
2023-01-11T00:37:54.713Z,578.92
2023-01-11T00:38:05.781Z,578.63
2023-01-11T00:38:16.740Z,578.56
2023-01-11T00:38:27.802Z,578.48
2023-01-11T00:38:39.751Z,578.55
2023-01-11T00:38:50.720Z,577.81
2023-01-11T00:39:01.799Z,578.77
2023-01-11T00:39:13.742Z,578.41
2023-01-11T00:39:24.756Z,578.32
2023-01-11T00:39:35.730Z,578.38
2023-01-11T00:39:46.811Z,578.47
2023-01-11T00:39:58.742Z,578.01
2023-01-11T00:40:09.700Z,577.94
2023-01-11T00:40:20.789Z,578.16
2023-01-11T00:40:31.755Z,578.05
2023-01-11T00:40:42.727Z,577.85
2023-01-11T00:40:53.713Z,578.00
2023-01-11T00:41:04.784Z,577.84
2023-01-11T00:41:15.760Z,577.87
2023-01-11T00:41:26.729Z,578.38
2023-01-11T00:41:37.742Z,578.03
2023-01-11T00:41:48.707Z,578.04
2023-01-11T00:41:59.765Z,577.57
2023-01-11T00:42:10.747Z,577.85
2023-01-11T00:42:21.752Z,577.66
2023-01-11T00:42:32.737Z,577.89
2023-01-11T00:42:43.724Z,577.24
2023-01-11T00:42:54.783Z,577.70
2023-01-11T00:43:05.760Z,577.80
2023-01-11T00:43:16.728Z,578.00
2023-01-11T00:43:27.719Z,577.79
2023-01-11T00:43:39.740Z,577.96
2023-01-11T00:43:50.718Z,577.60
2023-01-11T00:44:01.777Z,577.55
2023-01-11T00:44:12.773Z,577.51
2023-01-11T00:44:23.737Z,577.49
2023-01-11T00:44:34.716Z,577.80
2023-01-11T00:44:45.802Z,577.71
2023-01-11T00:44:57.735Z,577.62
2023-01-11T00:45:08.769Z,577.52
2023-01-11T00:45:19.733Z,578.04
2023-01-11T00:45:30.709Z,577.88
2023-01-11T00:45:41.785Z,577.92
2023-01-11T00:45:53.028Z,577.99
2023-01-11T00:46:03.767Z,577.90
2023-01-11T00:46:14.787Z,577.81
2023-01-11T00:46:25.843Z,577.82
2023-01-11T00:46:36.720Z,577.95
2023-01-11T00:46:47.778Z,577.79
2023-01-11T00:46:59.729Z,578.01
2023-01-11T00:47:10.737Z,577.85
2023-01-11T00:47:21.721Z,577.87
2023-01-11T00:47:32.709Z,577.93
2023-01-11T00:47:44.718Z,577.81
2023-01-11T00:47:55.718Z,577.82
2023-01-11T00:48:06.794Z,577.90
2023-01-11T00:48:18.729Z,577.94
2023-01-11T00:48:29.791Z,578.02
2023-01-11T00:48:40.754Z,578.43
2023-01-11T00:48:51.719Z,578.20
2023-01-11T00:49:02.792Z,578.14
2023-01-11T00:49:13.759Z,578.04
2023-01-11T00:49:24.724Z,578.46
2023-01-11T00:49:36.761Z,578.26
2023-01-11T00:49:47.748Z,578.11
2023-01-11T00:49:58.721Z,578.25
2023-01-11T00:50:09.790Z,578.31
2023-01-11T00:50:20.752Z,578.17
2023-01-11T00:50:31.736Z,578.26
2023-01-11T00:50:42.812Z,578.20
2023-01-11T00:50:54.743Z,578.75
2023-01-11T00:51:05.716Z,578.83
2023-01-11T00:51:16.794Z,578.81
2023-01-11T00:51:27.752Z,578.89
2023-01-11T00:51:38.717Z,578.55
2023-01-11T00:51:49.798Z,578.65
2023-01-11T00:52:00.762Z,579.06
2023-01-11T00:52:12.745Z,578.80
2023-01-11T00:52:23.719Z,578.73
2023-01-11T00:52:35.745Z,579.04
2023-01-11T00:52:46.727Z,578.72
2023-01-11T00:52:57.805Z,578.87
2023-01-11T00:53:09.741Z,578.87
2023-01-11T00:53:20.745Z,578.88
2023-01-11T00:53:31.714Z,578.89
2023-01-11T00:53:42.774Z,579.01
2023-01-11T00:53:54.790Z,578.90
2023-01-11T00:54:05.759Z,579.01
2023-01-11T00:54:16.751Z,578.81
2023-01-11T00:54:27.713Z,578.90
2023-01-11T00:54:38.792Z,578.56
2023-01-11T00:54:50.719Z,578.71
2023-01-11T00:55:01.789Z,578.71
2023-01-11T00:55:13.732Z,578.70
2023-01-11T00:55:24.802Z,579.23
2023-01-11T00:55:36.741Z,579.11
2023-01-11T00:55:47.705Z,579.03
2023-01-11T00:55:58.772Z,578.84
2023-01-11T00:56:10.732Z,578.80
2023-01-11T00:56:22.751Z,579.17
2023-01-11T00:56:33.752Z,579.36
2023-01-11T00:56:44.718Z,579.09
2023-01-11T00:56:55.791Z,578.94
2023-01-11T00:57:07.729Z,579.09
2023-01-11T00:57:18.807Z,578.98
2023-01-11T00:57:30.758Z,579.03
2023-01-11T00:57:41.747Z,578.94
2023-01-11T00:57:52.715Z,579.45
2023-01-11T00:58:03.813Z,579.09
2023-01-11T00:58:15.739Z,579.28
2023-01-11T00:58:26.807Z,579.09
2023-01-11T00:58:38.728Z,579.42
2023-01-11T00:58:49.721Z,579.24
2023-01-11T00:59:00.782Z,579.53
2023-01-11T00:59:12.756Z,579.33
2023-01-11T00:59:23.764Z,579.47
2023-01-11T00:59:34.728Z,579.49
2023-01-11T00:59:46.751Z,579.03
2023-01-11T00:59:57.728Z,579.08
2023-01-11T01:00:08.816Z,578.78
2023-01-11T01:00:20.755Z,579.14
2023-01-11T01:00:31.724Z,579.03
2023-01-11T01:00:42.801Z,578.92
2023-01-11T01:00:54.726Z,578.58
2023-01-11T01:01:05.829Z,579.25
2023-01-11T01:01:16.816Z,579.16
2023-01-11T01:01:28.851Z,579.10
2023-01-11T01:01:39.794Z,579.05
2023-01-11T01:01:51.745Z,579.05
2023-01-11T01:02:02.740Z,579.19
2023-01-11T01:02:13.760Z,578.99
2023-01-11T01:02:24.772Z,578.91
2023-01-11T01:02:35.805Z,578.94
2023-01-11T01:02:47.819Z,578.87
2023-01-11T01:02:58.712Z,579.06
2023-01-11T01:03:09.774Z,578.96
2023-01-11T01:03:20.722Z,578.92
2023-01-11T01:03:31.779Z,578.81
2023-01-11T01:03:43.755Z,578.41
2023-01-11T01:03:54.715Z,578.60
2023-01-11T01:04:05.791Z,578.59
2023-01-11T01:04:16.747Z,578.88
2023-01-11T01:04:27.758Z,578.67
2023-01-11T01:04:38.728Z,578.34
2023-01-11T01:04:49.794Z,578.25
2023-01-11T01:05:01.742Z,578.61
2023-01-11T01:05:12.805Z,578.66
2023-01-11T01:05:24.796Z,578.53
2023-01-11T01:05:36.741Z,578.43
2023-01-11T01:05:47.729Z,578.47
2023-01-11T01:05:58.794Z,578.58
2023-01-11T01:06:09.768Z,578.41
2023-01-11T01:06:20.742Z,578.67
2023-01-11T01:06:31.795Z,578.52
2023-01-11T01:06:42.754Z,578.66
2023-01-11T01:06:53.769Z,578.78
2023-01-11T01:07:04.768Z,578.64
2023-01-11T01:07:15.734Z,578.46
2023-01-11T01:07:26.742Z,578.54
2023-01-11T01:07:37.734Z,578.59
2023-01-11T01:07:48.814Z,578.57
2023-01-11T01:08:00.770Z,578.34
2023-01-11T01:08:11.750Z,578.28
2023-01-11T01:08:22.718Z,578.22
2023-01-11T01:08:34.731Z,578.53
2023-01-11T01:08:45.726Z,578.52
2023-01-11T01:08:56.798Z,578.74
2023-01-11T01:09:07.774Z,578.46
2023-01-11T01:09:18.755Z,578.52
2023-01-11T01:09:29.750Z,578.31
2023-01-11T01:09:40.721Z,578.21
2023-01-11T01:09:51.801Z,578.41
2023-01-11T01:10:02.764Z,578.68
2023-01-11T01:10:13.749Z,578.28
2023-01-11T01:10:24.744Z,578.59
2023-01-11T01:10:35.718Z,578.50
2023-01-11T01:10:46.781Z,578.59
2023-01-11T01:10:57.749Z,578.58
2023-01-11T01:11:08.719Z,578.49
2023-01-11T01:11:19.780Z,578.46
2023-01-11T01:11:31.747Z,578.39
2023-01-11T01:11:42.707Z,578.44
2023-01-11T01:11:53.784Z,578.23
2023-01-11T01:12:04.751Z,578.27
2023-01-11T01:12:15.734Z,578.37
2023-01-11T01:12:26.716Z,578.15
2023-01-11T01:12:37.783Z,578.30
2023-01-11T01:12:48.760Z,578.41
2023-01-11T01:12:59.730Z,578.32
2023-01-11T01:13:10.799Z,578.25
2023-01-11T01:13:22.715Z,578.23
2023-01-11T01:13:33.801Z,578.09
2023-01-11T01:13:44.758Z,577.73
2023-01-11T01:13:55.754Z,577.86
2023-01-11T01:14:07.774Z,577.97
2023-01-11T01:14:19.742Z,578.02
2023-01-11T01:14:30.729Z,577.88
2023-01-11T01:14:41.804Z,578.10
2023-01-11T01:14:53.745Z,577.88
2023-01-11T01:15:04.819Z,578.31
2023-01-11T01:15:16.778Z,578.02
2023-01-11T01:15:27.744Z,577.91
2023-01-11T01:15:38.808Z,578.03
2023-01-11T01:15:49.806Z,577.92
2023-01-11T01:16:00.786Z,578.14
2023-01-11T01:16:11.792Z,578.24
2023-01-11T01:16:22.756Z,578.02
2023-01-11T01:16:34.764Z,578.24
2023-01-11T01:16:46.791Z,578.33
2023-01-11T01:16:57.758Z,578.19
2023-01-11T01:17:08.728Z,578.04
2023-01-11T01:17:19.815Z,577.97
2023-01-11T01:17:31.745Z,578.24
2023-01-11T01:17:42.726Z,578.12
2023-01-11T01:17:53.796Z,578.15
2023-01-11T01:18:04.754Z,578.10
2023-01-11T01:18:15.720Z,578.20
2023-01-11T01:18:26.781Z,578.37
2023-01-11T01:18:37.760Z,578.35
2023-01-11T01:18:48.725Z,578.32
2023-01-11T01:18:59.773Z,578.10
2023-01-11T01:19:10.748Z,578.25
2023-01-11T01:19:21.733Z,578.50
2023-01-11T01:19:32.804Z,578.19
2023-01-11T01:19:44.746Z,578.55
2023-01-11T01:19:55.772Z,578.74
2023-01-11T01:20:06.753Z,578.52
2023-01-11T01:20:17.730Z,578.22
2023-01-11T01:20:28.799Z,577.90
2023-01-11T01:20:39.759Z,578.23
2023-01-11T01:20:50.739Z,578.51
2023-01-11T01:21:01.715Z,578.09
2023-01-11T01:21:12.785Z,578.18
2023-01-11T01:21:23.762Z,578.34
2023-01-11T01:21:34.735Z,578.11
2023-01-11T01:21:45.714Z,578.10
2023-01-11T01:21:56.729Z,578.39
2023-01-11T01:22:07.799Z,578.39
2023-01-11T01:22:19.735Z,578.17
2023-01-11T01:22:30.798Z,578.21
2023-01-11T01:22:41.765Z,578.17
2023-01-11T01:22:53.737Z,578.15
2023-01-11T01:23:04.811Z,578.50
2023-01-11T01:23:15.761Z,578.66
2023-01-11T01:23:26.731Z,578.23
2023-01-11T01:23:37.810Z,578.15
2023-01-11T01:23:49.741Z,578.08
2023-01-11T01:24:00.825Z,578.24
2023-01-11T01:24:12.759Z,578.35
2023-01-11T01:24:23.730Z,578.17
2023-01-11T01:24:34.796Z,578.27
2023-01-11T01:24:45.768Z,578.18
2023-01-11T01:24:56.734Z,578.27
2023-01-11T01:25:07.801Z,578.18
2023-01-11T01:25:19.761Z,578.09
2023-01-11T01:25:30.717Z,578.14
2023-01-11T01:25:41.788Z,577.73
2023-01-11T01:25:52.761Z,578.17
2023-01-11T01:26:03.740Z,578.31
2023-01-11T01:26:14.801Z,578.16
2023-01-11T01:26:26.736Z,578.53
2023-01-11T01:26:37.738Z,578.34
2023-01-11T01:26:48.801Z,578.38
2023-01-11T01:27:00.743Z,578.31
2023-01-11T01:27:11.738Z,578.26
2023-01-11T01:27:22.804Z,578.66
2023-01-11T01:27:34.735Z,578.48
2023-01-11T01:27:45.766Z,578.79
2023-01-11T01:27:56.732Z,578.67
2023-01-11T01:28:07.804Z,578.59
2023-01-11T01:28:19.818Z,578.74
2023-01-11T01:28:31.753Z,578.88
2023-01-11T01:28:42.718Z,578.77
2023-01-11T01:28:53.798Z,578.72
2023-01-11T01:29:04.763Z,578.84
2023-01-11T01:29:15.725Z,578.96
2023-01-11T01:29:26.789Z,579.05
2023-01-11T01:29:38.808Z,578.79
2023-01-11T01:29:50.733Z,578.90
2023-01-11T01:30:02.757Z,578.93
2023-01-11T01:30:14.766Z,578.72
2023-01-11T01:30:25.750Z,579.00
2023-01-11T01:30:36.718Z,578.87
2023-01-11T01:30:48.743Z,578.93
2023-01-11T01:30:59.820Z,578.75
2023-01-11T01:31:11.822Z,578.85
2023-01-11T01:31:23.841Z,579.22
2023-01-11T01:31:35.792Z,579.37
2023-01-11T01:31:47.735Z,579.47
2023-01-11T01:31:58.801Z,579.59
2023-01-11T01:32:09.766Z,579.60
2023-01-11T01:32:20.733Z,579.67
2023-01-11T01:32:31.806Z,579.57
2023-01-11T01:32:42.777Z,579.47
2023-01-11T01:32:53.732Z,579.27
2023-01-11T01:33:04.799Z,579.08
2023-01-11T01:33:15.765Z,579.07
2023-01-11T01:33:27.786Z,579.15
2023-01-11T01:33:38.745Z,579.63
2023-01-11T01:33:49.810Z,579.63
2023-01-11T01:34:01.753Z,579.42
2023-01-11T01:34:12.714Z,579.35
2023-01-11T01:34:23.785Z,579.30
2023-01-11T01:34:34.753Z,579.14
2023-01-11T01:34:45.752Z,579.38
2023-01-11T01:34:56.744Z,579.25
2023-01-11T01:35:07.726Z,579.37
2023-01-11T01:35:18.811Z,579.20
2023-01-11T01:35:30.732Z,579.63
2023-01-11T01:35:42.752Z,579.46
2023-01-11T01:35:53.726Z,579.79
2023-01-11T01:36:04.713Z,579.98
2023-01-11T01:36:15.783Z,579.64
2023-01-11T01:36:27.804Z,579.91
2023-01-11T01:36:39.734Z,579.98
2023-01-11T01:36:50.805Z,579.75
2023-01-11T01:37:02.768Z,579.59
2023-01-11T01:37:13.753Z,579.52
2023-01-11T01:37:24.729Z,579.68
2023-01-11T01:37:35.802Z,579.65
2023-01-11T01:37:47.770Z,579.52
2023-01-11T01:37:58.741Z,579.80
2023-01-11T01:38:10.759Z,579.59
2023-01-11T01:38:21.751Z,579.76
2023-01-11T01:38:32.741Z,579.83
2023-01-11T01:38:43.804Z,579.84
2023-01-11T01:38:55.750Z,579.49
2023-01-11T01:39:06.725Z,579.71
2023-01-11T01:39:17.802Z,579.54
2023-01-11T01:39:29.731Z,579.44
2023-01-11T01:39:40.804Z,579.53
2023-01-11T01:39:52.738Z,579.10
2023-01-11T01:40:03.727Z,579.49
2023-01-11T01:40:14.806Z,579.49
2023-01-11T01:40:26.775Z,579.61
2023-01-11T01:40:37.748Z,579.64
2023-01-11T01:40:48.765Z,579.68
2023-01-11T01:40:59.734Z,579.64
2023-01-11T01:41:10.804Z,579.55
2023-01-11T01:41:21.785Z,579.87
2023-01-11T01:41:33.739Z,579.85
2023-01-11T01:41:44.812Z,579.97
2023-01-11T01:41:56.752Z,579.65
2023-01-11T01:42:07.811Z,579.80
2023-01-11T01:42:19.737Z,579.88
2023-01-11T01:42:30.806Z,580.01
2023-01-11T01:42:41.764Z,579.69
2023-01-11T01:42:52.726Z,579.48
2023-01-11T01:43:03.791Z,579.72
2023-01-11T01:43:15.804Z,579.51
2023-01-11T01:43:26.764Z,579.75
2023-01-11T01:43:37.740Z,579.58
2023-01-11T01:43:48.804Z,579.65
2023-01-11T01:44:00.759Z,579.70
2023-01-11T01:44:11.726Z,579.57
2023-01-11T01:44:22.789Z,579.46
2023-01-11T01:44:33.757Z,580.04
2023-01-11T01:44:44.750Z,579.94
2023-01-11T01:44:55.735Z,580.00
2023-01-11T01:45:06.828Z,580.00
2023-01-11T01:45:18.749Z,580.12
2023-01-11T01:45:29.800Z,580.17
2023-01-11T01:45:40.751Z,580.14
2023-01-11T01:45:51.726Z,580.00
2023-01-11T01:46:02.796Z,580.14
2023-01-11T01:46:14.765Z,580.14
2023-01-11T01:46:25.757Z,580.17
2023-01-11T01:46:36.820Z,580.16
2023-01-11T01:46:47.720Z,580.42
2023-01-11T01:46:58.784Z,580.45
2023-01-11T01:47:09.758Z,580.61
2023-01-11T01:47:20.724Z,580.74
2023-01-11T01:47:31.721Z,580.39
2023-01-11T01:47:42.792Z,580.83
2023-01-11T01:47:54.759Z,580.90
2023-01-11T01:48:05.735Z,580.91
2023-01-11T01:48:16.718Z,580.92
2023-01-11T01:48:27.723Z,580.53
2023-01-11T01:48:38.795Z,580.73
2023-01-11T01:48:49.773Z,580.50
2023-01-11T01:49:00.755Z,580.55
2023-01-11T01:49:11.729Z,580.31
2023-01-11T01:49:22.793Z,580.67
2023-01-11T01:49:33.762Z,580.90
2023-01-11T01:49:44.728Z,580.49
2023-01-11T01:49:56.752Z,580.64
2023-01-11T01:50:07.752Z,580.34
2023-01-11T01:50:18.820Z,580.56
2023-01-11T01:50:30.736Z,580.52
2023-01-11T01:50:41.808Z,580.62
2023-01-11T01:50:53.757Z,580.48
2023-01-11T01:51:04.732Z,580.90
2023-01-11T01:51:15.812Z,581.08
2023-01-11T01:51:27.766Z,580.67
2023-01-11T01:51:38.731Z,580.34
2023-01-11T01:51:49.740Z,580.46
2023-01-11T01:52:00.810Z,580.64
2023-01-11T01:52:12.776Z,580.45
2023-01-11T01:52:23.746Z,580.47
2023-01-11T01:52:34.832Z,580.24
2023-01-11T01:52:46.764Z,580.52
2023-01-11T01:52:57.740Z,580.49
2023-01-11T01:53:08.833Z,580.46
2023-01-11T01:53:20.766Z,580.75
2023-01-11T01:53:31.728Z,580.59
2023-01-11T01:53:42.797Z,581.09
2023-01-11T01:53:54.751Z,580.91
2023-01-11T01:54:05.727Z,580.67
2023-01-11T01:54:16.787Z,580.65
2023-01-11T01:54:27.758Z,580.51
2023-01-11T01:54:38.824Z,580.87
2023-01-11T01:54:50.745Z,580.66
2023-01-11T01:55:01.715Z,580.77
2023-01-11T01:55:12.788Z,580.79
2023-01-11T01:55:24.805Z,580.70
2023-01-11T01:55:35.774Z,580.88
2023-01-11T01:55:46.754Z,580.88
2023-01-11T01:55:57.728Z,580.53
2023-01-11T01:56:08.795Z,580.99
2023-01-11T01:56:19.776Z,581.05
2023-01-11T01:56:30.739Z,580.93
2023-01-11T01:56:41.797Z,581.06
2023-01-11T01:56:53.775Z,580.79
2023-01-11T01:57:04.763Z,581.17
2023-01-11T01:57:15.744Z,581.12
2023-01-11T01:57:26.825Z,581.28
2023-01-11T01:57:38.753Z,580.97
2023-01-11T01:57:49.731Z,581.19
2023-01-11T01:58:00.802Z,580.82
2023-01-11T01:58:12.819Z,581.05
2023-01-11T01:58:24.751Z,581.29
2023-01-11T01:58:36.769Z,581.08
2023-01-11T01:58:47.752Z,581.12
2023-01-11T01:58:58.727Z,581.15
2023-01-11T01:59:09.813Z,580.99
2023-01-11T01:59:21.748Z,581.51
2023-01-11T01:59:33.773Z,581.18
2023-01-11T01:59:44.766Z,581.50
2023-01-11T01:59:55.782Z,581.61
2023-01-11T02:00:06.755Z,581.46
2023-01-11T02:00:17.721Z,581.58
2023-01-11T02:00:28.789Z,581.43
2023-01-11T02:00:39.764Z,581.45
2023-01-11T02:00:50.723Z,581.53
2023-01-11T02:01:01.737Z,581.67
2023-01-11T02:01:12.729Z,581.68
2023-01-11T02:01:23.795Z,581.55
2023-01-11T02:01:34.796Z,581.43
2023-01-11T02:01:46.813Z,581.58
2023-01-11T02:01:58.823Z,581.37
2023-01-11T02:02:10.753Z,581.93
2023-01-11T02:02:21.759Z,581.78
2023-01-11T02:02:32.851Z,581.68
2023-01-11T02:02:43.777Z,581.68
2023-01-11T02:02:54.792Z,581.74
2023-01-11T02:03:06.825Z,581.58
2023-01-11T02:03:18.787Z,581.85
2023-01-11T02:03:30.750Z,581.98
2023-01-11T02:03:41.729Z,581.83
2023-01-11T02:03:52.800Z,581.95
2023-01-11T02:04:03.761Z,581.82
2023-01-11T02:04:14.733Z,581.88
2023-01-11T02:04:25.791Z,581.78
2023-01-11T02:04:36.759Z,581.91
2023-01-11T02:04:47.859Z,581.99
2023-01-11T02:04:58.742Z,581.94
2023-01-11T02:05:09.714Z,581.91
2023-01-11T02:05:20.782Z,581.91
2023-01-11T02:05:31.771Z,582.13
2023-01-11T02:05:42.737Z,582.03
2023-01-11T02:05:53.791Z,582.01
2023-01-11T02:06:04.761Z,581.85
2023-01-11T02:06:15.719Z,581.88
2023-01-11T02:06:26.832Z,582.22
2023-01-11T02:06:38.838Z,582.32
2023-01-11T02:06:49.788Z,582.08
2023-01-11T02:07:00.760Z,582.34
2023-01-11T02:07:11.740Z,582.37
2023-01-11T02:07:22.808Z,582.48
2023-01-11T02:07:33.797Z,582.26
2023-01-11T02:07:44.767Z,582.28
2023-01-11T02:07:55.760Z,582.49
2023-01-11T02:08:06.739Z,582.29
2023-01-11T02:08:17.810Z,582.62
2023-01-11T02:08:29.742Z,582.58
2023-01-11T02:08:40.738Z,582.92
2023-01-11T02:08:51.801Z,582.75
2023-01-11T02:09:03.735Z,583.01
2023-01-11T02:09:14.798Z,582.95
2023-01-11T02:09:25.774Z,582.84
2023-01-11T02:09:36.755Z,583.30
2023-01-11T02:09:47.743Z,583.54
2023-01-11T02:09:58.809Z,583.43
2023-01-11T02:10:10.749Z,583.37
2023-01-11T02:10:21.725Z,583.65
2023-01-11T02:10:32.800Z,583.64
2023-01-11T02:10:43.766Z,583.63
2023-01-11T02:10:54.744Z,583.56
2023-01-11T02:11:05.824Z,583.27
2023-01-11T02:11:17.759Z,583.47
2023-01-11T02:11:28.737Z,583.40
2023-01-11T02:11:39.754Z,583.74
2023-01-11T02:11:50.831Z,583.33
2023-01-11T02:12:02.775Z,583.43
2023-01-11T02:12:13.738Z,583.50
2023-01-11T02:12:24.813Z,583.37
2023-01-11T02:12:36.738Z,583.40
2023-01-11T02:12:47.805Z,583.28
2023-01-11T02:12:58.779Z,583.41
2023-01-11T02:13:09.753Z,583.44
2023-01-11T02:13:20.721Z,583.02
2023-01-11T02:13:31.802Z,583.15
2023-01-11T02:13:42.771Z,583.15
2023-01-11T02:13:53.733Z,583.22
2023-01-11T02:14:04.813Z,583.15
2023-01-11T02:14:16.746Z,583.16
2023-01-11T02:14:27.753Z,583.19
2023-01-11T02:14:38.719Z,583.03
2023-01-11T02:14:49.792Z,583.35
2023-01-11T02:15:00.771Z,583.03
2023-01-11T02:15:11.743Z,583.23
2023-01-11T02:15:22.808Z,583.10
2023-01-11T02:15:33.782Z,583.05
2023-01-11T02:15:45.848Z,582.87
2023-01-11T02:15:57.823Z,583.45
2023-01-11T02:16:08.921Z,583.16
2023-01-11T02:16:19.744Z,583.02
2023-01-11T02:16:30.739Z,582.98
2023-01-11T02:16:41.717Z,583.03
2023-01-11T02:16:52.795Z,583.08
2023-01-11T02:17:03.757Z,583.34
2023-01-11T02:17:14.756Z,583.27
2023-01-11T02:17:25.740Z,583.34
2023-01-11T02:17:36.812Z,583.49
2023-01-11T02:17:47.785Z,583.47
2023-01-11T02:17:58.752Z,583.45
2023-01-11T02:18:09.717Z,583.41
2023-01-11T02:18:20.791Z,583.34
2023-01-11T02:18:32.739Z,583.59
2023-01-11T02:18:43.803Z,583.35
2023-01-11T02:18:55.736Z,583.44
2023-01-11T02:19:06.719Z,583.65
2023-01-11T02:19:17.790Z,583.64
2023-01-11T02:19:28.759Z,583.55
2023-01-11T02:19:39.733Z,583.76
2023-01-11T02:19:50.802Z,583.66
2023-01-11T02:20:02.736Z,583.34
2023-01-11T02:20:13.804Z,583.48
2023-01-11T02:20:25.720Z,583.51